Manchester, Oklahoma
Current Conditions -  °F | °C
As of 10:50 PM on Friday 21 Nov 2014 (Local Time) from KAVK Reporting Station
Moderate Fog Moderate Fog  
Wind Chill: 32°   Ceiling: 200
Heat Index: 37°   Visibility: 0.25mi
Dew Point: 37°   Wind: 7mph
Humidity: 100%   Direction: 160°SSE
Pressure: 30.06"   Gusts: NA
Location:  36.99°N, 98.04°W
Report Text: KAVK 220450Z AUTO 16006KT 1/4SM FG OVC002 03/03 A3006 RMK AO2
Loading
Personal Weather Stations






























Interactive Weather Map New forecast layout! Learn more

10-Day Weather Forecast

Advertisements
Track Severe Weather on mobile